createdAt,value
2023-01-31T00:00:43.392Z,77.36
2023-01-31T00:04:43.393Z,76.81
2023-01-31T00:08:47.457Z,77.37
2023-01-31T00:12:47.437Z,77.34
2023-01-31T00:16:47.480Z,76.53
2023-01-31T00:20:47.606Z,76.45
2023-01-31T00:24:50.210Z,77.10
2023-01-31T00:28:52.589Z,77.10
2023-01-31T00:32:52.667Z,76.85
2023-01-31T00:36:52.737Z,77.35
2023-01-31T00:40:58.202Z,77.26
2023-01-31T00:44:58.220Z,77.74
2023-01-31T00:48:59.305Z,77.72
2023-01-31T00:52:59.384Z,78.50
2023-01-31T00:57:02.157Z,78.55
2023-01-31T01:01:10.830Z,78.44
2023-01-31T01:05:11.975Z,77.29
2023-01-31T01:09:12.047Z,77.07
2023-01-31T01:13:14.691Z,77.75
2023-01-31T01:17:15.523Z,78.64
2023-01-31T01:21:18.681Z,77.93
2023-01-31T01:25:19.155Z,77.82
2023-01-31T01:29:22.117Z,77.19
2023-01-31T01:33:22.918Z,77.48
2023-01-31T01:37:22.995Z,77.04
2023-01-31T01:41:24.567Z,76.49
2023-01-31T01:45:27.457Z,76.57
2023-01-31T01:49:36.395Z,76.39
2023-01-31T01:53:41.229Z,77.33
2023-01-31T01:57:45.902Z,76.55
2023-01-31T02:01:50.922Z,76.91
2023-01-31T02:05:57.947Z,77.40
2023-01-31T02:10:05.769Z,78.06
2023-01-31T02:14:10.611Z,77.38
2023-01-31T02:18:15.324Z,77.21
2023-01-31T02:22:24.945Z,77.58
2023-01-31T02:27:11.702Z,76.90
2023-01-31T02:32:00.164Z,77.10
2023-01-31T02:36:19.983Z,76.68
2023-01-31T02:40:32.431Z,76.92
2023-01-31T02:44:56.580Z,76.40
2023-01-31T02:49:07.965Z,77.09
2023-01-31T02:53:21.589Z,76.96
2023-01-31T02:57:20.944Z,77.63
2023-01-31T03:01:28.091Z,78.28
2023-01-31T03:05:28.712Z,77.38
2023-01-31T03:09:42.285Z,78.44
2023-01-31T03:13:59.377Z,79.78
2023-01-31T03:18:09.694Z,78.92
2023-01-31T03:22:18.535Z,79.10
2023-01-31T03:26:22.757Z,79.50
2023-01-31T03:30:33.475Z,79.08
2023-01-31T03:34:34.990Z,79.30
2023-01-31T03:38:42.315Z,79.66
2023-01-31T03:42:54.922Z,78.78
2023-01-31T03:47:02.337Z,79.00
2023-01-31T03:51:07.366Z,78.61
2023-01-31T03:55:18.670Z,78.49
2023-01-31T03:59:28.226Z,77.38
2023-01-31T04:03:35.652Z,77.46
2023-01-31T04:07:36.066Z,77.97
2023-01-31T04:11:42.174Z,78.00
2023-01-31T04:15:44.954Z,78.03
2023-01-31T04:19:45.088Z,78.60
2023-01-31T04:23:45.229Z,79.28
2023-01-31T04:27:45.280Z,78.92
2023-01-31T04:31:48.040Z,79.33
2023-01-31T04:35:48.185Z,79.59
2023-01-31T04:39:48.263Z,79.87
2023-01-31T04:43:48.349Z,79.44
2023-01-31T04:47:51.163Z,79.80
2023-01-31T04:51:51.220Z,80.00
2023-01-31T04:55:51.480Z,80.30
2023-01-31T04:59:52.314Z,80.61
2023-01-31T05:03:55.339Z,80.08
2023-01-31T05:07:55.450Z,80.07
2023-01-31T05:11:55.494Z,80.57
2023-01-31T05:15:55.751Z,80.14
2023-01-31T05:19:58.545Z,80.13
2023-01-31T05:23:58.604Z,79.99
2023-01-31T05:27:58.658Z,80.27
2023-01-31T05:32:01.847Z,80.61
2023-01-31T05:36:05.974Z,80.27
2023-01-31T05:40:06.643Z,80.09
2023-01-31T05:44:07.434Z,82.44
2023-01-31T05:48:08.377Z,83.65
2023-01-31T05:52:10.966Z,83.81
2023-01-31T05:56:11.103Z,83.28
2023-01-31T06:00:13.437Z,82.58
2023-01-31T06:04:13.627Z,81.84
2023-01-31T06:08:17.758Z,81.03
2023-01-31T06:12:18.313Z,81.29
2023-01-31T06:16:18.532Z,80.76
2023-01-31T06:20:19.064Z,79.24
2023-01-31T06:24:21.666Z,79.53
2023-01-31T06:28:22.328Z,78.76
2023-01-31T06:32:22.353Z,78.21
2023-01-31T06:36:22.567Z,78.74
2023-01-31T06:40:25.230Z,78.37
2023-01-31T06:44:26.604Z,78.17
2023-01-31T06:48:27.504Z,78.52
2023-01-31T06:52:27.586Z,78.15
2023-01-31T06:56:30.483Z,78.07
2023-01-31T07:00:31.471Z,77.30
2023-01-31T07:04:31.733Z,78.25
2023-01-31T07:08:35.340Z,77.38
2023-01-31T07:12:38.760Z,77.81
2023-01-31T07:16:39.846Z,77.26
2023-01-31T07:20:39.934Z,76.89
2023-01-31T07:24:40.121Z,76.73
2023-01-31T07:28:42.945Z,75.76
2023-01-31T07:32:43.050Z,77.11
2023-01-31T07:36:43.158Z,77.04
2023-01-31T07:40:43.194Z,76.19
2023-01-31T07:44:46.067Z,76.62
2023-01-31T07:48:46.228Z,76.60
2023-01-31T07:52:46.299Z,76.69
2023-01-31T07:56:47.541Z,75.53
2023-01-31T08:01:02.928Z,75.60
2023-01-31T08:05:04.070Z,75.63
2023-01-31T08:09:05.019Z,74.53
2023-01-31T08:13:06.184Z,74.08
2023-01-31T08:17:09.564Z,75.18
2023-01-31T08:21:11.704Z,75.64
2023-01-31T08:25:12.308Z,74.35
2023-01-31T08:29:12.489Z,73.07
2023-01-31T08:33:15.382Z,73.65
2023-01-31T08:37:17.356Z,73.17
2023-01-31T08:41:19.595Z,73.33
2023-01-31T08:45:20.253Z,73.49
2023-01-31T08:49:23.004Z,73.47
2023-01-31T08:53:23.091Z,73.94
2023-01-31T08:57:23.204Z,72.91
2023-01-31T09:01:25.551Z,71.44
2023-01-31T09:05:31.185Z,71.82
2023-01-31T09:09:31.553Z,69.71
2023-01-31T09:13:33.424Z,69.91
2023-01-31T09:17:33.698Z,69.06
2023-01-31T09:21:36.467Z,66.89
2023-01-31T09:25:45.652Z,67.03
2023-01-31T09:29:47.485Z,66.38
2023-01-31T09:33:48.032Z,66.24
2023-01-31T09:37:50.803Z,65.52
2023-01-31T09:41:55.920Z,65.45
2023-01-31T09:46:03.163Z,64.38
2023-01-31T09:50:11.002Z,65.36
2023-01-31T09:54:23.551Z,64.35
2023-01-31T09:58:35.379Z,64.74
2023-01-31T10:03:06.946Z,65.43
2023-01-31T10:07:15.120Z,64.56
2023-01-31T10:11:34.144Z,64.28
2023-01-31T10:15:42.169Z,65.36
2023-01-31T10:19:53.771Z,65.59
2023-01-31T10:24:02.192Z,64.79
2023-01-31T10:28:14.754Z,65.99
2023-01-31T10:32:24.169Z,65.50
2023-01-31T10:36:32.387Z,65.18
2023-01-31T10:40:39.615Z,64.27
2023-01-31T10:44:56.784Z,64.10
2023-01-31T10:48:56.996Z,62.57
2023-01-31T10:53:20.759Z,62.39
2023-01-31T10:57:21.072Z,62.40
2023-01-31T11:01:23.838Z,61.59
2023-01-31T11:05:31.456Z,61.39
2023-01-31T11:09:36.921Z,61.08
2023-01-31T11:13:37.483Z,60.63
2023-01-31T11:17:45.815Z,61.03
2023-01-31T11:21:53.245Z,60.60
2023-01-31T11:25:56.901Z,60.42
2023-01-31T11:30:00.300Z,59.87
2023-01-31T11:34:05.459Z,59.22
2023-01-31T11:38:22.531Z,58.75
2023-01-31T11:42:22.773Z,60.03
2023-01-31T11:46:23.025Z,60.37
2023-01-31T11:50:34.117Z,59.87
2023-01-31T11:54:37.116Z,59.01
2023-01-31T11:58:42.986Z,59.50
2023-01-31T12:02:44.948Z,59.68
2023-01-31T12:07:01.925Z,59.21
2023-01-31T12:11:02.476Z,58.40
2023-01-31T12:15:16.702Z,57.35
2023-01-31T12:19:35.948Z,56.53
2023-01-31T12:23:52.653Z,57.11
2023-01-31T12:28:11.361Z,56.97
2023-01-31T12:32:42.234Z,57.03
2023-01-31T12:37:01.691Z,56.44
2023-01-31T12:41:22.217Z,58.00
2023-01-31T12:45:43.577Z,58.81
2023-01-31T12:50:16.902Z,60.96
2023-01-31T12:54:45.953Z,62.33
2023-01-31T12:59:15.376Z,62.16
2023-01-31T13:03:47.196Z,62.04
2023-01-31T13:07:54.614Z,62.08
2023-01-31T13:12:02.064Z,63.32
2023-01-31T13:16:16.525Z,63.40
2023-01-31T13:20:29.776Z,63.68
2023-01-31T13:24:36.595Z,63.87
2023-01-31T13:28:46.038Z,63.96
2023-01-31T13:32:52.724Z,65.68
2023-01-31T13:36:59.219Z,66.02
2023-01-31T13:41:01.139Z,67.72
2023-01-31T13:45:11.315Z,67.21
2023-01-31T13:49:23.948Z,67.52
2023-01-31T13:53:30.987Z,68.90
2023-01-31T13:57:35.238Z,67.36
2023-01-31T14:01:39.808Z,67.94
2023-01-31T14:06:04.945Z,67.90
2023-01-31T14:10:45.604Z,67.38
2023-01-31T14:14:49.354Z,67.50
2023-01-31T14:18:49.582Z,66.81
2023-01-31T14:23:47.441Z,68.53
2023-01-31T14:28:04.332Z,67.47
2023-01-31T14:32:17.960Z,68.29
2023-01-31T14:37:01.279Z,68.68
2023-01-31T14:41:21.862Z,68.11
2023-01-31T14:45:54.097Z,68.69
2023-01-31T14:50:27.285Z,67.91
2023-01-31T14:54:59.708Z,67.21
2023-01-31T14:59:02.798Z,67.00
2023-01-31T15:03:11.992Z,67.24
2023-01-31T15:07:19.850Z,66.46
2023-01-31T15:11:46.561Z,66.87
2023-01-31T15:15:54.914Z,67.33
2023-01-31T15:20:00.561Z,66.97
2023-01-31T15:24:02.913Z,67.63
2023-01-31T15:28:06.569Z,68.56
2023-01-31T15:32:23.326Z,67.98
2023-01-31T15:36:33.305Z,66.92
2023-01-31T15:40:34.380Z,67.00
2023-01-31T15:44:34.500Z,67.39
2023-01-31T15:48:37.151Z,67.87
2023-01-31T15:52:37.194Z,69.22
2023-01-31T15:56:42.174Z,70.88
2023-01-31T16:00:44.295Z,73.17
2023-01-31T16:04:47.020Z,73.36
2023-01-31T16:08:47.089Z,75.51
2023-01-31T16:12:53.318Z,76.53
2023-01-31T16:16:57.800Z,76.86
2023-01-31T16:21:00.998Z,76.31
2023-01-31T16:25:04.591Z,78.47
2023-01-31T16:29:12.469Z,77.58
2023-01-31T16:33:20.864Z,77.55
2023-01-31T16:37:35.126Z,79.96
2023-01-31T16:41:58.307Z,79.93
2023-01-31T16:46:01.158Z,81.67
2023-01-31T16:50:43.174Z,80.81
2023-01-31T16:54:54.017Z,81.31
2023-01-31T16:58:57.705Z,83.11
2023-01-31T17:03:00.793Z,82.42
2023-01-31T17:07:09.363Z,80.35
2023-01-31T17:11:19.824Z,81.32
2023-01-31T17:15:28.986Z,80.16
2023-01-31T17:19:30.509Z,80.94
2023-01-31T17:23:30.504Z,81.06
2023-01-31T17:27:33.235Z,81.71
2023-01-31T17:31:34.788Z,81.59
2023-01-31T17:35:39.081Z,80.98
2023-01-31T17:39:39.157Z,81.42
2023-01-31T17:43:41.873Z,81.58
2023-01-31T17:47:42.057Z,83.93
2023-01-31T17:51:42.488Z,82.87
2023-01-31T17:55:42.863Z,84.06
2023-01-31T17:59:45.489Z,84.39
2023-01-31T18:03:45.751Z,82.52
2023-01-31T18:07:46.218Z,82.18
2023-01-31T18:11:46.931Z,82.40
2023-01-31T18:15:49.709Z,82.81
2023-01-31T18:19:49.935Z,82.32
2023-01-31T18:23:54.069Z,83.23
